Time;durP1;ratioP1;P1;durP2;ratioP2;P2;SDS_P1;SDS_P2;PMS_P1;PMS_P2;Temp;Humidity;BMP_temperature;BMP_pressure;BME280_temperature;BME280_humidity;BME280_pressure;Samples;Min_cycle;Max_cycle;Signal;HPM_P1;HPM_P2
2023/08/16 00:01:15;;;;;;;3.10;2.78;;;25.10;64.60;;;;;;4997021;28;20635;-84
2023/08/16 00:03:42;;;;;;;2.70;2.50;;;25.10;64.60;;;;;;4996873;28;20300;-83
2023/08/16 00:06:10;;;;;;;3.25;2.35;;;25.10;64.70;;;;;;4996820;28;20287;-84
2023/08/16 00:08:37;;;;;;;2.88;2.53;;;25.10;64.70;;;;;;4996825;28;20200;-84
2023/08/16 00:11:04;;;;;;;3.05;2.80;;;25.00;64.60;;;;;;4996714;28;20220;-84
2023/08/16 00:13:32;;;;;;;2.83;2.63;;;25.00;64.60;;;;;;4997649;28;20197;-83
2023/08/16 00:16:00;;;;;;;4.38;2.88;;;25.00;64.60;;;;;;4997028;28;20192;-83
2023/08/16 00:18:28;;;;;;;2.90;2.65;;;25.10;64.70;;;;;;4996752;28;20214;-83
2023/08/16 00:20:55;;;;;;;2.90;2.70;;;25.00;64.70;;;;;;4996743;28;20216;-83
2023/08/16 00:23:23;;;;;;;3.00;2.70;;;25.00;64.70;;;;;;4998845;28;20193;-84
2023/08/16 00:25:50;;;;;;;3.25;2.75;;;24.90;64.70;;;;;;5000144;28;20197;-84
2023/08/16 00:28:17;;;;;;;3.63;3.00;;;25.00;64.70;;;;;;5000003;28;20200;-84
2023/08/16 00:30:44;;;;;;;3.30;3.00;;;25.00;64.70;;;;;;4983875;28;20220;-84
2023/08/16 00:33:12;;;;;;;3.28;2.97;;;25.00;64.80;;;;;;5000732;28;20193;-84
2023/08/16 00:35:39;;;;;;;3.53;3.20;;;25.00;64.90;;;;;;4999937;28;20204;-84
2023/08/16 00:38:07;;;;;;;3.08;2.88;;;25.00;64.80;;;;;;5000140;28;20693;-84
2023/08/16 00:40:34;;;;;;;3.60;3.00;;;25.00;64.70;;;;;;4999798;28;20220;-84
2023/08/16 00:43:01;;;;;;;3.58;3.17;;;24.90;64.70;;;;;;4999744;28;20207;-83
2023/08/16 00:45:28;;;;;;;3.08;2.83;;;25.00;64.90;;;;;;4999950;28;20560;-83
2023/08/16 00:47:55;;;;;;;3.03;2.83;;;24.90;64.70;;;;;;5015836;28;20201;-83
2023/08/16 00:50:24;;;;;;;3.17;2.88;;;24.90;64.70;;;;;;4999479;28;20224;-83
2023/08/16 00:52:51;;;;;;;3.88;3.10;;;24.90;64.80;;;;;;4999317;28;20606;-83
2023/08/16 00:55:19;;;;;;;3.55;3.13;;;24.90;64.90;;;;;;4999770;28;20201;-83
2023/08/16 00:57:46;;;;;;;3.00;2.70;;;25.00;65.00;;;;;;5000081;28;20203;-83
2023/08/16 01:00:14;;;;;;;3.10;2.80;;;25.00;65.10;;;;;;4983247;28;20203;-83
2023/08/16 01:02:41;;;;;;;3.20;2.90;;;24.90;65.00;;;;;;5000128;28;20192;-83
2023/08/16 01:05:09;;;;;;;3.38;3.08;;;24.90;65.00;;;;;;4999605;28;20200;-83
2023/08/16 01:07:38;;;;;;;3.28;2.97;;;24.90;65.00;;;;;;4999963;28;20259;-83
2023/08/16 01:10:06;;;;;;;3.35;2.80;;;24.90;65.00;;;;;;4983278;28;20215;-83
2023/08/16 01:12:37;;;;;;;3.03;2.80;;;24.90;65.10;;;;;;5000607;28;20573;-83
2023/08/16 01:15:08;;;;;;;3.10;2.83;;;24.90;65.20;;;;;;4984457;28;20188;-83
2023/08/16 01:17:35;;;;;;;3.13;2.92;;;24.90;65.20;;;;;;4984003;28;20640;-83
2023/08/16 01:20:04;;;;;;;3.10;2.80;;;24.90;65.20;;;;;;4994362;28;20664;-84
2023/08/16 01:22:34;;;;;;;3.53;3.22;;;24.90;65.20;;;;;;5007337;28;20197;-83
2023/08/16 01:25:11;;;;;;;3.42;3.13;;;24.90;65.20;;;;;;4999747;28;20207;-83
2023/08/16 01:27:39;;;;;;;3.58;2.92;;;24.90;65.20;;;;;;4999642;28;20231;-83
2023/08/16 01:30:07;;;;;;;3.15;2.85;;;24.90;65.20;;;;;;5000074;28;20211;-84
2023/08/16 01:32:36;;;;;;;3.47;2.90;;;24.90;65.30;;;;;;4999245;28;20239;-83
2023/08/16 01:35:04;;;;;;;3.20;3.00;;;24.90;65.40;;;;;;5017090;28;20300;-83
2023/08/16 01:37:32;;;;;;;4.18;2.75;;;24.90;65.40;;;;;;4999706;28;20207;-83
2023/08/16 01:40:00;;;;;;;3.60;2.85;;;24.90;65.50;;;;;;5000452;28;20207;-84
2023/08/16 01:42:28;;;;;;;3.15;2.95;;;24.90;65.50;;;;;;4999796;28;20203;-83
2023/08/16 01:44:57;;;;;;;3.90;3.10;;;24.90;65.40;;;;;;4999550;28;20201;-83
2023/08/16 01:47:24;;;;;;;3.30;3.00;;;24.90;65.40;;;;;;4999378;28;20213;-83
2023/08/16 01:49:51;;;;;;;3.10;2.88;;;24.90;65.50;;;;;;4999535;28;20200;-83
2023/08/16 01:52:19;;;;;;;3.13;2.85;;;24.90;65.60;;;;;;4999108;28;20223;-83
2023/08/16 01:54:46;;;;;;;4.20;3.10;;;24.90;65.50;;;;;;4999711;28;20207;-83
2023/08/16 01:57:13;;;;;;;3.53;3.05;;;24.90;65.60;;;;;;4999270;28;20211;-83
2023/08/16 01:59:41;;;;;;;3.22;3.03;;;24.80;65.50;;;;;;4998714;28;20205;-83
2023/08/16 02:02:15;;;;;;;3.50;3.20;;;24.80;65.50;;;;;;5000134;28;20232;-83
2023/08/16 02:04:43;;;;;;;3.53;3.13;;;24.80;65.50;;;;;;4999801;28;20299;-83
2023/08/16 02:07:10;;;;;;;4.05;3.13;;;24.80;65.60;;;;;;5002635;28;20212;-83
2023/08/16 02:09:37;;;;;;;3.42;3.10;;;24.80;65.50;;;;;;5022669;28;20212;-83
2023/08/16 02:12:04;;;;;;;3.13;2.83;;;24.80;65.50;;;;;;5022568;28;20231;-81
2023/08/16 02:14:31;;;;;;;3.20;2.90;;;24.80;65.50;;;;;;4995568;28;20193;-83
2023/08/16 02:16:58;;;;;;;3.50;3.05;;;24.80;65.70;;;;;;4998557;28;20231;-83
2023/08/16 02:19:27;;;;;;;3.72;3.10;;;24.80;65.60;;;;;;4999125;28;20201;-83
2023/08/16 02:21:55;;;;;;;2.95;2.65;;;24.80;65.60;;;;;;4998272;28;20558;-83
2023/08/16 02:24:22;;;;;;;3.42;2.80;;;24.80;65.70;;;;;;4999204;28;20267;-82
2023/08/16 02:26:49;;;;;;;3.45;3.03;;;24.70;65.60;;;;;;4982402;28;20205;-83
2023/08/16 02:29:17;;;;;;;3.22;2.92;;;24.70;65.50;;;;;;4981876;28;20251;-83
2023/08/16 02:31:44;;;;;;;4.07;2.92;;;24.80;65.60;;;;;;4998270;28;20216;-83
2023/08/16 02:34:11;;;;;;;3.33;3.03;;;24.70;65.60;;;;;;4998305;28;20200;-83
2023/08/16 02:36:40;;;;;;;3.03;2.72;;;24.80;65.80;;;;;;4999029;28;20539;-83
2023/08/16 02:39:08;;;;;;;4.20;2.95;;;24.60;65.70;;;;;;4998139;28;20299;-83
2023/08/16 02:41:35;;;;;;;3.05;2.72;;;24.70;65.80;;;;;;4998092;28;20231;-83
2023/08/16 02:44:02;;;;;;;2.83;2.63;;;24.70;66.60;;;;;;4997995;28;20714;-83
2023/08/16 02:46:30;;;;;;;3.13;2.90;;;24.70;65.90;;;;;;4997435;28;20205;-83
2023/08/16 02:48:58;;;;;;;3.03;2.70;;;24.70;65.90;;;;;;4998362;28;20651;-83
2023/08/16 02:51:25;;;;;;;3.45;3.10;;;24.70;65.90;;;;;;4997629;28;20323;-82
2023/08/16 02:53:53;;;;;;;3.20;2.90;;;24.70;65.80;;;;;;4997894;28;20276;-83
2023/08/16 02:56:21;;;;;;;5.00;2.75;;;24.70;65.70;;;;;;4997781;28;20608;-83
2023/08/16 02:58:47;;;;;;;3.05;2.80;;;24.70;65.90;;;;;;4981166;28;20200;-82
2023/08/16 03:01:15;;;;;;;3.28;2.97;;;24.70;65.80;;;;;;4997561;28;20278;-83
2023/08/16 03:03:43;;;;;;;3.85;2.80;;;24.60;65.80;;;;;;4982261;28;20197;-83
2023/08/16 03:06:10;;;;;;;3.22;2.92;;;24.60;65.80;;;;;;4998114;28;20663;-83
2023/08/16 03:08:37;;;;;;;3.20;2.92;;;24.60;65.60;;;;;;5007025;28;20206;-83
2023/08/16 03:11:06;;;;;;;3.20;2.90;;;24.60;65.60;;;;;;5015330;28;20244;-83
2023/08/16 03:13:32;;;;;;;3.78;2.65;;;24.60;65.60;;;;;;5015656;28;20201;-83
2023/08/16 03:16:01;;;;;;;3.20;2.95;;;24.60;65.50;;;;;;5006903;28;20204;-83
2023/08/16 03:18:28;;;;;;;3.15;2.95;;;24.60;65.50;;;;;;4997385;28;20203;-83
2023/08/16 03:20:56;;;;;;;3.22;2.88;;;24.60;65.50;;;;;;4997915;28;20247;-82
2023/08/16 03:23:24;;;;;;;3.80;3.05;;;24.70;65.60;;;;;;4998180;28;20531;-82
2023/08/16 03:25:52;;;;;;;3.03;2.72;;;24.70;65.50;;;;;;5002906;28;20193;-82
2023/08/16 03:28:21;;;;;;;4.55;3.13;;;24.70;65.30;;;;;;5005539;28;20200;-83
2023/08/16 03:30:49;;;;;;;2.75;2.50;;;24.80;65.10;;;;;;4999030;28;20216;-83
2023/08/16 03:33:16;;;;;;;3.40;2.90;;;24.80;65.00;;;;;;4997888;28;20260;-83
2023/08/16 03:35:44;;;;;;;3.33;2.90;;;24.80;64.80;;;;;;4997736;28;20204;-83
2023/08/16 03:38:12;;;;;;;2.80;2.60;;;24.80;64.70;;;;;;4997497;28;20219;-82
2023/08/16 03:40:39;;;;;;;3.00;2.70;;;24.80;64.50;;;;;;4997137;28;20216;-83
2023/08/16 03:43:05;;;;;;;2.72;2.53;;;24.80;64.40;;;;;;5035228;22;20651;-83
2023/08/16 03:45:35;;;;;;;3.53;2.88;;;24.80;64.30;;;;;;5016349;28;20189;-83
2023/08/16 03:48:03;;;;;;;2.38;2.17;;;24.80;64.10;;;;;;4998099;28;20200;-83
2023/08/16 03:50:30;;;;;;;2.60;2.40;;;24.80;63.80;;;;;;4997356;28;20213;-83
2023/08/16 03:52:59;;;;;;;3.13;2.63;;;24.90;63.80;;;;;;4981442;28;20212;-83
2023/08/16 03:55:26;;;;;;;4.25;2.72;;;24.90;63.80;;;;;;4996428;28;20200;-83
2023/08/16 03:57:53;;;;;;;2.50;2.30;;;24.90;64.10;;;;;;5014900;28;20207;-83
2023/08/16 04:00:21;;;;;;;2.83;2.63;;;24.90;63.90;;;;;;5000466;28;20566;-83
2023/08/16 04:02:52;;;;;;;2.70;2.50;;;24.90;63.80;;;;;;5000679;28;20197;-83
2023/08/16 04:05:21;;;;;;;2.88;2.65;;;24.90;63.70;;;;;;5000647;28;20210;-83
2023/08/16 04:07:48;;;;;;;3.38;2.88;;;25.00;63.70;;;;;;5000920;28;20223;-83
2023/08/16 04:10:15;;;;;;;3.95;2.70;;;25.10;63.50;;;;;;5000440;28;20220;-83
2023/08/16 04:12:43;;;;;;;2.72;2.53;;;25.00;63.50;;;;;;5000503;28;20222;-83
2023/08/16 04:15:11;;;;;;;3.47;2.70;;;25.00;63.30;;;;;;5017139;28;20254;-83
2023/08/16 04:17:38;;;;;;;3.10;2.90;;;25.00;63.10;;;;;;5001019;28;20650;-83
2023/08/16 04:20:08;;;;;;;2.72;2.42;;;25.10;63.10;;;;;;5017074;28;20207;-83
2023/08/16 04:22:35;;;;;;;2.97;2.67;;;25.10;63.20;;;;;;5001822;28;20659;-83
2023/08/16 04:25:03;;;;;;;4.07;2.80;;;25.00;63.00;;;;;;5002421;28;20201;-81
2023/08/16 04:27:30;;;;;;;2.97;2.55;;;25.00;63.00;;;;;;5001238;28;20287;-81
2023/08/16 04:29:58;;;;;;;3.80;2.50;;;25.00;63.00;;;;;;4984676;28;20200;-81
2023/08/16 04:32:25;;;;;;;3.00;2.70;;;24.90;63.10;;;;;;5000617;28;20235;-81
2023/08/16 04:34:52;;;;;;;2.60;2.40;;;25.00;63.10;;;;;;5001487;28;20287;-81
2023/08/16 04:37:20;;;;;;;2.85;2.65;;;24.90;62.90;;;;;;5016803;28;20573;-81
2023/08/16 04:39:48;;;;;;;2.72;2.50;;;24.90;63.10;;;;;;5000154;28;20201;-81
2023/08/16 04:42:15;;;;;;;3.78;2.40;;;24.90;63.20;;;;;;5000168;28;20279;-81
2023/08/16 04:44:43;;;;;;;2.88;2.53;;;24.90;63.20;;;;;;5004979;28;20228;-81
2023/08/16 04:47:09;;;;;;;3.28;2.70;;;24.90;63.20;;;;;;5017147;28;20227;-81
2023/08/16 04:49:38;;;;;;;3.72;2.47;;;24.80;63.10;;;;;;5017732;28;20207;-81
2023/08/16 04:52:06;;;;;;;2.80;2.60;;;24.80;63.20;;;;;;5000639;28;20691;-81
2023/08/16 04:54:35;;;;;;;2.60;2.40;;;24.80;63.20;;;;;;5000339;28;20192;-81
2023/08/16 04:57:02;;;;;;;3.55;2.80;;;24.80;63.30;;;;;;5000237;28;20196;-81
2023/08/16 04:59:33;;;;;;;3.92;2.95;;;24.80;63.20;;;;;;5000996;28;20199;-81
2023/08/16 05:02:02;;;;;;;3.05;2.65;;;24.80;63.30;;;;;;5000257;28;20603;-81
2023/08/16 05:04:30;;;;;;;3.30;2.50;;;24.80;63.30;;;;;;5016451;28;20192;-81
2023/08/16 05:06:57;;;;;;;2.75;2.40;;;24.80;63.30;;;;;;5000025;28;20203;-81
2023/08/16 05:09:24;;;;;;;3.47;2.65;;;24.80;63.20;;;;;;5015882;28;20211;-81
2023/08/16 05:11:52;;;;;;;2.75;2.50;;;24.80;63.30;;;;;;4999624;28;20226;-81
2023/08/16 05:14:20;;;;;;;3.00;2.80;;;24.80;63.20;;;;;;4983498;28;20216;-81
2023/08/16 05:16:47;;;;;;;4.45;2.80;;;24.80;63.30;;;;;;5015956;28;20343;-82
2023/08/16 05:19:14;;;;;;;2.90;2.70;;;24.80;63.40;;;;;;5015514;28;20223;-82
2023/08/16 05:21:42;;;;;;;3.08;2.70;;;24.90;63.20;;;;;;4999373;28;20217;-82
2023/08/16 05:24:09;;;;;;;3.50;2.78;;;25.00;62.90;;;;;;4982858;28;20616;-82
2023/08/16 05:26:36;;;;;;;2.63;2.42;;;25.20;62.40;;;;;;4999530;28;20271;-82
2023/08/16 05:29:05;;;;;;;3.28;2.63;;;25.30;62.00;;;;;;4999388;28;20196;-82
2023/08/16 05:31:32;;;;;;;3.22;2.72;;;25.40;61.50;;;;;;4999017;28;20271;-82
2023/08/16 05:33:59;;;;;;;2.70;2.50;;;25.60;61.10;;;;;;4999043;28;20216;-82
2023/08/16 05:36:29;;;;;;;3.80;2.88;;;25.70;60.70;;;;;;4999011;28;20196;-82
2023/08/16 05:38:56;;;;;;;3.00;2.80;;;25.80;60.30;;;;;;5015706;28;20666;-82
2023/08/16 05:41:23;;;;;;;2.83;2.63;;;25.90;60.00;;;;;;4999280;28;20227;-82
2023/08/16 05:43:50;;;;;;;3.53;2.58;;;26.00;59.70;;;;;;5014935;28;20211;-83
2023/08/16 05:46:18;;;;;;;3.17;2.67;;;26.20;59.50;;;;;;5016723;28;20188;-83
2023/08/16 05:48:46;;;;;;;3.15;2.90;;;26.20;59.30;;;;;;5003318;28;20204;-82
2023/08/16 05:51:13;;;;;;;2.63;2.42;;;26.40;59.80;;;;;;4999182;28;20230;-82
2023/08/16 05:53:40;;;;;;;2.72;2.53;;;26.40;59.00;;;;;;4998796;28;20216;-82
2023/08/16 05:56:07;;;;;;;2.83;2.55;;;26.60;58.80;;;;;;4998420;28;20207;-82
2023/08/16 05:58:34;;;;;;;3.03;2.75;;;26.60;58.60;;;;;;4998180;28;20207;-83
2023/08/16 06:01:01;;;;;;;2.90;2.55;;;26.60;58.50;;;;;;5015570;28;20220;-81
2023/08/16 06:03:30;;;;;;;3.42;3.13;;;26.70;58.50;;;;;;5016061;28;20195;-81
2023/08/16 06:05:57;;;;;;;4.10;3.60;;;26.70;60.00;;;;;;4998848;28;20724;-81
2023/08/16 06:08:23;;;;;;;5.93;3.42;;;26.60;61.70;;;;;;4982546;28;20196;-81
2023/08/16 06:10:50;;;;;;;4.97;3.92;;;26.60;61.70;;;;;;4998730;28;20590;-81
2023/08/16 06:13:18;;;;;;;5.88;3.30;;;26.60;61.70;;;;;;5007976;28;20303;-81
2023/08/16 06:15:45;;;;;;;4.22;3.25;;;26.60;61.90;;;;;;5005767;28;20200;-81
2023/08/16 06:18:13;;;;;;;4.93;3.38;;;26.50;61.50;;;;;;4982656;28;20552;-81
2023/08/16 06:20:42;;;;;;;3.92;3.58;;;26.60;61.30;;;;;;4997766;28;20219;-81
2023/08/16 06:23:10;;;;;;;5.82;3.78;;;26.60;60.80;;;;;;4982020;28;20192;-81
2023/08/16 06:25:36;;;;;;;4.10;3.70;;;26.70;60.50;;;;;;4997919;28;20203;-81
2023/08/16 06:28:04;;;;;;;4.40;3.70;;;26.80;60.10;;;;;;5015540;28;20188;-81
2023/08/16 06:30:31;;;;;;;4.25;3.85;;;26.80;59.60;;;;;;5014628;28;20392;-80
2023/08/16 06:32:58;;;;;;;5.07;3.80;;;27.00;59.70;;;;;;4997859;28;20266;-81
2023/08/16 06:35:25;;;;;;;4.43;4.03;;;27.10;59.50;;;;;;4998312;28;20553;-81
2023/08/16 06:37:54;;;;;;;4.03;3.63;;;27.10;59.40;;;;;;5006182;28;20203;-81
2023/08/16 06:40:21;;;;;;;4.60;4.20;;;27.10;59.40;;;;;;4999160;28;20220;-81
2023/08/16 06:42:48;;;;;;;3.65;3.40;;;27.20;59.30;;;;;;5014315;28;20191;-81
2023/08/16 06:45:15;;;;;;;5.25;4.10;;;27.20;59.50;;;;;;5015157;28;20235;-81
2023/08/16 06:47:42;;;;;;;5.00;4.00;;;27.20;59.60;;;;;;4997460;28;20200;-81
2023/08/16 06:50:10;;;;;;;4.82;3.90;;;27.10;59.50;;;;;;4998318;28;20200;-81
2023/08/16 06:52:37;;;;;;;6.28;3.83;;;27.00;59.70;;;;;;4997472;28;20216;-80
2023/08/16 06:55:06;;;;;;;5.78;4.00;;;27.00;59.70;;;;;;4997484;28;20650;-80
2023/08/16 06:57:33;;;;;;;4.40;3.75;;;26.90;60.10;;;;;;4998427;28;20734;-81
2023/08/16 07:00:03;;;;;;;4.45;4.03;;;26.90;60.20;;;;;;4998200;28;20196;-81
2023/08/16 07:02:30;;;;;;;4.40;3.97;;;27.00;60.00;;;;;;5014930;28;20275;-81
2023/08/16 07:04:58;;;;;;;4.07;3.78;;;27.00;59.80;;;;;;4981563;28;20200;-81
2023/08/16 07:07:24;;;;;;;4.20;3.80;;;27.10;59.80;;;;;;4997860;28;20196;-81
2023/08/16 07:09:52;;;;;;;4.63;3.95;;;27.10;59.80;;;;;;4981330;28;20254;-81
2023/08/16 07:12:20;;;;;;;4.32;3.53;;;27.20;59.90;;;;;;4997229;28;20216;-81
2023/08/16 07:14:49;;;;;;;3.83;3.53;;;27.30;59.30;;;;;;4997354;28;20192;-81
2023/08/16 07:17:16;;;;;;;4.13;3.78;;;27.50;59.10;;;;;;4997712;28;20219;-81
2023/08/16 07:19:47;;;;;;;3.63;3.33;;;27.60;59.00;;;;;;4981984;28;20232;-81
2023/08/16 07:22:14;;;;;;;4.32;3.40;;;27.60;58.60;;;;;;5000903;28;20224;-81
2023/08/16 07:24:41;;;;;;;5.47;3.58;;;27.70;58.40;;;;;;5007043;28;20184;-81
2023/08/16 07:27:08;;;;;;;4.15;3.75;;;27.60;58.30;;;;;;5025887;28;20238;-80
2023/08/16 07:29:37;;;;;;;4.22;3.83;;;27.60;58.30;;;;;;5007962;28;20188;-81
2023/08/16 07:32:04;;;;;;;4.47;3.65;;;27.60;58.30;;;;;;5028403;28;20223;-81
2023/08/16 07:34:31;;;;;;;4.18;3.75;;;27.60;58.00;;;;;;5016651;28;20219;-81
2023/08/16 07:36:58;;;;;;;4.22;3.55;;;27.60;58.00;;;;;;5018649;28;20215;-81
2023/08/16 07:39:26;;;;;;;4.05;3.75;;;27.60;57.90;;;;;;5020445;28;20221;-81
2023/08/16 07:41:53;;;;;;;4.85;4.20;;;27.60;58.00;;;;;;4986696;28;20299;-81
2023/08/16 07:44:20;;;;;;;4.65;4.25;;;27.60;58.80;;;;;;5002864;28;20267;-81
2023/08/16 07:46:48;;;;;;;5.05;4.57;;;27.50;59.00;;;;;;4998043;28;20231;-81
2023/08/16 07:49:15;;;;;;;6.78;4.68;;;27.60;59.90;;;;;;4997367;28;20231;-81
2023/08/16 07:51:42;;;;;;;5.65;4.97;;;27.60;59.60;;;;;;5013807;28;20443;-81
2023/08/16 07:54:09;;;;;;;5.90;4.90;;;27.60;59.40;;;;;;4997488;28;20667;-81
2023/08/16 07:56:37;;;;;;;5.75;4.72;;;27.50;59.30;;;;;;5018547;28;20211;-81
2023/08/16 07:59:04;;;;;;;7.53;5.53;;;27.50;59.20;;;;;;5023869;28;20200;-81
2023/08/16 08:01:31;;;;;;;8.13;5.50;;;27.60;59.30;;;;;;5018428;28;20223;-81
2023/08/16 08:04:00;;;;;;;8.18;5.45;;;27.70;58.80;;;;;;5002271;28;20582;-81
2023/08/16 08:06:27;;;;;;;6.65;5.43;;;27.60;58.90;;;;;;5003181;28;20207;-81
2023/08/16 08:08:54;;;;;;;6.97;4.93;;;27.70;58.70;;;;;;4985600;28;20192;-81
2023/08/16 08:11:21;;;;;;;5.95;4.82;;;27.80;58.50;;;;;;5001072;28;20315;-81
2023/08/16 08:13:48;;;;;;;6.07;5.28;;;28.00;58.30;;;;;;5017561;28;20222;-81
2023/08/16 08:16:15;;;;;;;6.38;5.57;;;28.00;58.90;;;;;;5002062;28;20690;-81
2023/08/16 08:18:43;;;;;;;6.07;5.38;;;28.00;58.60;;;;;;5001818;28;20196;-81
2023/08/16 08:21:11;;;;;;;6.00;4.93;;;28.00;58.90;;;;;;5000343;28;20264;-81
2023/08/16 08:23:38;;;;;;;5.47;4.88;;;28.10;58.00;;;;;;5000065;28;20287;-81
2023/08/16 08:26:06;;;;;;;7.40;5.18;;;28.20;58.20;;;;;;5017118;28;20204;-81
2023/08/16 08:28:33;;;;;;;5.57;4.65;;;28.40;57.60;;;;;;5000676;28;20197;-81
2023/08/16 08:31:02;;;;;;;6.32;4.57;;;28.50;57.30;;;;;;4984259;28;20220;-81
2023/08/16 08:33:29;;;;;;;5.30;4.80;;;28.60;56.80;;;;;;5000910;28;20224;-81
2023/08/16 08:35:56;;;;;;;5.35;4.55;;;28.70;56.40;;;;;;4981159;28;20200;-80
2023/08/16 08:38:25;;;;;;;5.18;4.68;;;28.80;56.40;;;;;;4996256;28;20206;-82
2023/08/16 08:40:57;;;;;;;4.75;4.10;;;28.90;56.00;;;;;;4997280;28;20240;-82
2023/08/16 08:43:24;;;;;;;5.57;4.10;;;28.90;55.90;;;;;;5013319;28;20275;-83
2023/08/16 08:45:51;;;;;;;5.15;4.65;;;29.00;55.80;;;;;;4999559;28;20203;-83
2023/08/16 08:48:19;;;;;;;5.22;4.60;;;29.00;55.40;;;;;;4999425;28;20678;-82
2023/08/16 08:50:46;;;;;;;5.10;4.40;;;29.10;55.30;;;;;;4999340;28;20220;-83
2023/08/16 08:53:13;;;;;;;5.20;4.43;;;29.10;55.40;;;;;;4999735;28;20227;-81
2023/08/16 08:55:41;;;;;;;5.70;4.20;;;29.10;55.30;;;;;;5017838;28;20200;-82
2023/08/16 08:58:08;;;;;;;4.30;4.00;;;29.00;55.30;;;;;;5017914;28;20259;-82
2023/08/16 09:00:37;;;;;;;5.93;4.20;;;29.00;55.40;;;;;;5015485;28;20248;-82
2023/08/16 09:03:07;;;;;;;4.90;4.40;;;29.00;55.40;;;;;;4997097;28;20200;-80
2023/08/16 09:05:34;;;;;;;4.70;4.30;;;29.10;55.40;;;;;;5000179;28;20266;-81
2023/08/16 09:08:01;;;;;;;4.20;3.90;;;29.10;55.20;;;;;;4983811;28;20655;-82
2023/08/16 09:10:28;;;;;;;4.57;4.13;;;29.10;55.20;;;;;;4999672;28;20310;-81
2023/08/16 09:12:56;;;;;;;5.13;4.13;;;29.10;55.00;;;;;;5000160;28;20219;-81
2023/08/16 09:15:23;;;;;;;4.90;4.40;;;29.20;54.90;;;;;;4996594;28;20222;-81
2023/08/16 09:17:51;;;;;;;4.55;4.10;;;29.20;54.90;;;;;;4999807;28;20266;-81
2023/08/16 09:20:19;;;;;;;5.63;4.32;;;29.20;54.90;;;;;;4998975;28;20223;-81
2023/08/16 09:22:48;;;;;;;4.65;4.15;;;29.20;54.90;;;;;;4999481;28;20207;-81
2023/08/16 09:25:16;;;;;;;4.50;4.13;;;29.30;54.90;;;;;;4999233;28;20192;-81
2023/08/16 09:27:43;;;;;;;4.72;4.00;;;29.30;54.60;;;;;;4999361;28;20200;-81
2023/08/16 09:30:14;;;;;;;4.50;4.03;;;29.40;54.60;;;;;;4983703;28;20196;-81
2023/08/16 09:32:42;;;;;;;5.40;4.13;;;29.40;54.50;;;;;;5000208;28;20287;-81
2023/08/16 09:35:13;;;;;;;4.97;4.55;;;29.40;54.40;;;;;;4999049;28;20211;-81
2023/08/16 09:37:42;;;;;;;4.57;4.18;;;29.30;54.40;;;;;;4999117;28;20196;-81
2023/08/16 09:40:11;;;;;;;4.60;3.75;;;29.30;54.60;;;;;;4999001;28;20250;-81
2023/08/16 09:45:26;;;;;;;4.10;3.78;;;29.30;54.40;;;;;;4996049;28;20219;-82
2023/08/16 09:47:53;;;;;;;4.45;4.05;;;29.40;54.30;;;;;;4979972;28;20189;-82
2023/08/16 09:50:22;;;;;;;4.60;4.20;;;29.40;54.20;;;;;;4976423;28;20248;-82
2023/08/16 09:52:50;;;;;;;4.93;4.13;;;29.50;54.70;;;;;;4977247;28;20296;-82
2023/08/16 09:55:24;;;;;;;4.60;4.05;;;29.50;54.10;;;;;;4977354;28;20225;-82
2023/08/16 09:57:52;;;;;;;4.72;4.32;;;29.40;54.60;;;;;;4976895;28;20652;-82
2023/08/16 10:00:23;;;;;;;4.00;3.70;;;29.50;54.10;;;;;;4976588;28;20272;-82
2023/08/16 10:02:51;;;;;;;4.63;4.22;;;29.40;54.10;;;;;;4976171;28;20193;-82
2023/08/16 10:05:18;;;;;;;5.28;3.85;;;29.40;54.20;;;;;;4976291;28;20209;-82
2023/08/16 10:07:47;;;;;;;5.10;3.75;;;29.40;54.20;;;;;;4976186;28;20201;-82
2023/08/16 10:10:14;;;;;;;4.38;3.97;;;29.40;54.20;;;;;;4976072;28;20205;-82
2023/08/16 10:12:42;;;;;;;4.80;3.90;;;29.40;54.10;;;;;;4976537;28;20285;-82
2023/08/16 10:15:09;;;;;;;4.47;4.07;;;29.40;54.00;;;;;;4976240;28;20321;-82
2023/08/16 10:17:39;;;;;;;3.88;3.58;;;29.40;54.00;;;;;;4976151;28;20205;-82
2023/08/16 10:20:09;;;;;;;4.30;3.90;;;29.40;54.20;;;;;;4976549;28;20208;-82
2023/08/16 10:22:38;;;;;;;3.95;3.65;;;29.30;54.20;;;;;;4976441;28;20660;-82
2023/08/16 10:25:10;;;;;;;3.90;3.60;;;29.20;54.40;;;;;;4976416;28;20198;-82
2023/08/16 10:27:38;;;;;;;4.63;4.22;;;29.20;54.50;;;;;;4977016;28;20325;-82
2023/08/16 10:30:07;;;;;;;4.55;4.00;;;29.10;54.70;;;;;;4987343;28;20278;-82
2023/08/16 10:32:35;;;;;;;4.50;4.10;;;29.10;54.80;;;;;;4961848;28;20224;-82
2023/08/16 10:35:03;;;;;;;4.43;3.90;;;29.10;54.70;;;;;;4976496;28;20240;-83
2023/08/16 10:37:31;;;;;;;4.00;3.63;;;29.10;54.80;;;;;;4977706;28;20201;-83
2023/08/16 10:39:58;;;;;;;4.20;3.80;;;29.10;54.90;;;;;;4976390;28;20260;-82
2023/08/16 10:42:26;;;;;;;4.93;4.20;;;29.00;55.00;;;;;;4976267;28;20205;-83
2023/08/16 10:44:53;;;;;;;4.28;3.88;;;29.00;55.10;;;;;;4975144;28;20206;-82
2023/08/16 10:47:29;;;;;;;3.90;3.60;;;28.90;55.10;;;;;;4976129;28;20203;-83
2023/08/16 10:49:56;;;;;;;3.90;3.60;;;28.90;55.20;;;;;;4975320;28;20201;-82
2023/08/16 10:52:32;;;;;;;4.20;3.80;;;28.90;55.20;;;;;;4974742;28;20659;-82
2023/08/16 10:55:00;;;;;;;4.57;4.00;;;28.90;55.10;;;;;;4975227;28;20272;-83
2023/08/16 10:57:27;;;;;;;4.18;3.83;;;28.90;55.20;;;;;;4959971;28;20272;-82
2023/08/16 11:00:03;;;;;;;4.50;4.05;;;28.90;55.30;;;;;;4975277;28;20204;-82
2023/08/16 11:02:31;;;;;;;3.90;3.60;;;28.90;55.30;;;;;;4978272;28;20193;-83
2023/08/16 11:04:59;;;;;;;4.15;3.85;;;28.90;55.40;;;;;;4976536;28;20201;-83
2023/08/16 11:07:27;;;;;;;3.65;3.45;;;28.90;55.70;;;;;;4974435;28;20213;-82
2023/08/16 11:09:58;;;;;;;4.45;4.05;;;28.90;55.80;;;;;;4959277;28;20213;-81
2023/08/16 11:12:30;;;;;;;4.68;4.28;;;29.00;56.10;;;;;;4974829;28;20600;-83
2023/08/16 11:14:57;;;;;;;5.82;4.55;;;28.90;56.30;;;;;;4975022;28;20287;-83
2023/08/16 11:17:26;;;;;;;4.75;4.35;;;28.90;56.40;;;;;;4974627;28;20206;-82
2023/08/16 11:19:54;;;;;;;5.13;4.70;;;29.00;56.60;;;;;;4975042;28;20237;-82
2023/08/16 11:22:21;;;;;;;5.25;4.85;;;29.00;56.60;;;;;;4975445;28;20197;-83
2023/08/16 11:24:48;;;;;;;4.85;4.35;;;29.00;56.60;;;;;;4975006;28;20206;-83
2023/08/16 11:27:26;;;;;;;5.13;4.60;;;29.00;56.70;;;;;;4975577;28;20186;-83
2023/08/16 11:29:54;;;;;;;6.82;5.18;;;29.00;56.90;;;;;;4975074;28;20724;-83
2023/08/16 11:32:35;;;;;;;6.07;5.15;;;29.00;57.00;;;;;;4975066;28;20240;-82
2023/08/16 11:35:06;;;;;;;5.55;5.05;;;29.00;57.10;;;;;;4974710;28;20225;-82
2023/08/16 11:37:35;;;;;;;5.97;4.97;;;29.00;57.00;;;;;;4975252;28;20225;-83
2023/08/16 11:40:04;;;;;;;6.45;5.10;;;29.00;57.10;;;;;;4959155;28;20229;-83
2023/08/16 11:42:32;;;;;;;6.22;4.97;;;29.00;57.10;;;;;;4975832;28;20201;-82
2023/08/16 11:44:59;;;;;;;5.93;5.32;;;29.00;57.20;;;;;;4959338;28;20231;-82
2023/08/16 11:47:26;;;;;;;5.20;4.75;;;29.00;57.20;;;;;;4974931;28;20323;-83
2023/08/16 11:49:53;;;;;;;6.30;4.93;;;29.00;57.30;;;;;;4975103;28;20200;-82
2023/08/16 11:52:22;;;;;;;5.68;5.05;;;29.00;57.50;;;;;;4975832;28;20311;-83
2023/08/16 11:55:11;;;;;;;5.32;4.82;;;29.00;57.60;;;;;;4975869;28;20256;-82
2023/08/16 11:57:45;;;;;;;5.50;5.00;;;29.00;57.50;;;;;;4956605;28;20217;-83
2023/08/16 12:00:14;;;;;;;5.32;4.82;;;29.00;57.40;;;;;;4955053;28;20189;-83
2023/08/16 12:02:42;;;;;;;7.35;4.90;;;29.00;57.40;;;;;;4976478;28;20202;-83
2023/08/16 12:05:10;;;;;;;7.38;5.30;;;29.00;57.50;;;;;;4977493;28;20519;-83
2023/08/16 12:07:42;;;;;;;5.65;5.10;;;29.00;57.50;;;;;;4977312;28;20186;-83
2023/08/16 12:10:10;;;;;;;5.90;5.07;;;29.00;57.50;;;;;;4977588;28;20224;-82
2023/08/16 12:12:37;;;;;;;5.30;4.82;;;29.00;57.50;;;;;;4968582;28;20202;-83
2023/08/16 12:15:06;;;;;;;5.20;4.70;;;29.00;57.60;;;;;;4977915;28;20229;-83
2023/08/16 12:17:33;;;;;;;5.35;4.90;;;29.00;57.60;;;;;;4961886;28;20201;-83
2023/08/16 12:20:00;;;;;;;6.68;4.75;;;29.00;57.60;;;;;;4981001;28;20206;-83
2023/08/16 12:22:27;;;;;;;5.15;4.65;;;28.90;57.40;;;;;;4982060;28;20608;-83
2023/08/16 12:24:54;;;;;;;4.75;4.35;;;28.90;57.30;;;;;;4965704;28;20201;-83
2023/08/16 12:27:22;;;;;;;5.78;4.53;;;28.90;57.20;;;;;;4981083;28;20676;-83
2023/08/16 12:29:49;;;;;;;5.25;4.75;;;28.90;57.00;;;;;;4982569;28;20240;-83
2023/08/16 12:32:19;;;;;;;4.70;4.25;;;28.90;57.40;;;;;;4981601;28;20221;-83
2023/08/16 12:34:46;;;;;;;5.50;4.28;;;28.90;56.60;;;;;;4965557;28;20217;-83
2023/08/16 12:37:13;;;;;;;6.03;4.05;;;28.90;56.60;;;;;;4981573;28;20296;-83
2023/08/16 12:39:40;;;;;;;4.85;4.35;;;28.90;56.50;;;;;;4981548;28;20212;-83
2023/08/16 12:42:08;;;;;;;5.38;4.40;;;28.90;56.60;;;;;;4981550;28;20224;-82
2023/08/16 12:44:34;;;;;;;5.68;4.57;;;28.90;56.50;;;;;;4981084;28;20205;-83
2023/08/16 12:47:02;;;;;;;4.45;4.15;;;28.90;56.60;;;;;;4965258;28;20244;-83
2023/08/16 12:49:31;;;;;;;4.57;4.13;;;28.90;56.40;;;;;;4981314;28;20205;-83
2023/08/16 12:51:58;;;;;;;6.10;4.32;;;28.90;56.40;;;;;;4964846;28;20217;-83
2023/08/16 12:54:25;;;;;;;4.57;4.10;;;28.90;56.40;;;;;;4980814;28;20217;-83